PWSweather.com
Personal Weather Stations
Station Observations
2450ARBOR
Round Rock, TX 78681

Round Rock, TX 78681

Lat: 30.535239, Lon: -97.728137

Elevation: 800

Station Type:

Latest ConditionsUpdated 3:50:00 AM CDT Sunday, Sep 22, 2019
Currently Today's Max Today's Min Today's Average
Temperature 76.3°F24.6°C 79.0°F26.1°C 76.3°F24.6°C 77.2°F25.1°C
Dew Point 73.5°F23.1°C 73.5°F23.1°C 72.4°F22.4°C 73.1°F22.8°C
Winds Calm Calm 4.0 mph -6.4 kmh - - 1.0 mph 1.6 kmh
Wind Gusts -- 6.0 mph9.7 kmh - -
Humidity 91% 91% 81% 87%
Pressure 29.17 in987.8 mb 29.18 in988.1 mb 29.17 in987.8 mb -
Hour Temp Dew Point Humidity Winds Wind Gusts Pressure Precip Precip Rate Daily Precip Total
03:50 AM 76.3°F24.6°C 73.5°F23.1°C 91% Calm Calm -- 29.17 in987.8 mb 0.00 in0.0 mm 0.00 in0.0 mm 0.00 in0.0 mm
03:45 AM 76.3°F24.6°C 73.5°F23.1°C 91% Calm Calm 2.0 mph3.2 kmh 29.17 in987.8 mb 0.00 in0.0 mm 0.00 in0.0 mm 0.00 in0.0 mm
03:40 AM 76.3°F24.6°C 73.5°F23.1°C 91% Calm Calm 2.0 mph3.2 kmh 29.17 in987.8 mb 0.00 in0.0 mm 0.00 in0.0 mm 0.00 in0.0 mm
03:35 AM 76.3°F24.6°C 73.5°F23.1°C 91% Calm Calm -- 29.17 in987.8 mb 0.00 in0.0 mm 0.00 in0.0 mm 0.00 in0.0 mm
03:30 AM 76.3°F24.6°C 73.5°F23.1°C 91% 2.0 mph SSE3.2 kmh SSE 2.0 mph3.2 kmh 29.17 in987.8 mb 0.00 in0.0 mm 0.00 in0.0 mm 0.00 in0.0 mm
03:25 AM 76.3°F24.6°C 73.5°F23.1°C 91% Calm Calm -- 29.17 in987.8 mb 0.00 in0.0 mm 0.00 in0.0 mm 0.00 in0.0 mm
03:20 AM 76.3°F24.6°C 73.5°F23.1°C 91% Calm Calm 2.0 mph3.2 kmh 29.17 in987.8 mb 0.00 in0.0 mm 0.00 in0.0 mm 0.00 in0.0 mm
03:15 AM 76.3°F24.6°C 73.5°F23.1°C 91% Calm Calm 2.0 mph3.2 kmh 29.17 in987.8 mb 0.00 in0.0 mm 0.00 in0.0 mm 0.00 in0.0 mm
03:10 AM 76.3°F24.6°C 73.5°F23.1°C 91% Calm Calm 4.0 mph6.4 kmh 29.17 in987.8 mb 0.00 in0.0 mm 0.00 in0.0 mm 0.00 in0.0 mm
03:05 AM 76.3°F24.6°C 73.1°F22.8°C 90% Calm Calm -- 29.18 in988.1 mb 0.00 in0.0 mm 0.00 in0.0 mm 0.00 in0.0 mm
03:00 AM 76.3°F24.6°C 73.1°F22.8°C 90% Calm Calm 2.0 mph3.2 kmh 29.17 in987.8 mb 0.00 in0.0 mm 0.00 in0.0 mm 0.00 in0.0 mm
02:55 AM 76.3°F24.6°C 73.1°F22.8°C 90% 1.0 mph SSE1.6 kmh SSE 3.0 mph4.8 kmh 29.18 in988.1 mb 0.00 in0.0 mm 0.00 in0.0 mm 0.00 in0.0 mm
02:50 AM 76.5°F24.7°C 73.3°F22.9°C 90% Calm Calm 2.0 mph3.2 kmh 29.18 in988.1 mb 0.00 in0.0 mm 0.00 in0.0 mm 0.00 in0.0 mm
02:45 AM 76.5°F24.7°C 73.3°F22.9°C 90% 1.0 mph ESE1.6 kmh ESE 3.0 mph4.8 kmh 29.17 in987.8 mb 0.00 in0.0 mm 0.00 in0.0 mm 0.00 in0.0 mm
02:40 AM 76.5°F24.7°C 73.3°F22.9°C 90% 2.0 mph E3.2 kmh E 4.0 mph6.4 kmh 29.17 in987.8 mb 0.00 in0.0 mm 0.00 in0.0 mm 0.00 in0.0 mm
02:35 AM 76.5°F24.7°C 73.3°F22.9°C 90% 1.0 mph SSE1.6 kmh SSE 5.0 mph8.0 kmh 29.17 in987.8 mb 0.00 in0.0 mm 0.00 in0.0 mm 0.00 in0.0 mm
02:30 AM 76.6°F24.8°C 73.1°F22.8°C 89% 3.0 mph S4.8 kmh S 4.0 mph6.4 kmh 29.17 in987.8 mb 0.00 in0.0 mm 0.00 in0.0 mm 0.00 in0.0 mm
02:25 AM 76.6°F24.8°C 73.1°F22.8°C 89% 1.0 mph ESE1.6 kmh ESE 3.0 mph4.8 kmh 29.17 in987.8 mb 0.00 in0.0 mm 0.00 in0.0 mm 0.00 in0.0 mm
02:20 AM 76.6°F24.8°C 73.1°F22.8°C 89% Calm Calm 3.0 mph4.8 kmh 29.17 in987.8 mb 0.00 in0.0 mm 0.00 in0.0 mm 0.00 in0.0 mm
02:15 AM 76.8°F24.9°C 73.3°F22.9°C 89% 1.0 mph S1.6 kmh S 2.0 mph3.2 kmh 29.17 in987.8 mb 0.00 in0.0 mm 0.00 in0.0 mm 0.00 in0.0 mm
02:10 AM 76.8°F24.9°C 73.3°F22.9°C 89% 2.0 mph S3.2 kmh S 3.0 mph4.8 kmh 29.17 in987.8 mb 0.00 in0.0 mm 0.00 in0.0 mm 0.00 in0.0 mm
02:05 AM 76.8°F24.9°C 73.0°F22.8°C 88% 3.0 mph S4.8 kmh S 3.0 mph4.8 kmh 29.17 in987.8 mb 0.00 in0.0 mm 0.00 in0.0 mm 0.00 in0.0 mm
02:00 AM 77.0°F25.0°C 73.2°F22.9°C 88% Calm Calm 2.0 mph3.2 kmh 29.17 in987.8 mb 0.00 in0.0 mm 0.00 in0.0 mm 0.00 in0.0 mm
01:55 AM 77.2°F25.1°C 73.4°F23.0°C 88% 1.0 mph S1.6 kmh S 4.0 mph6.4 kmh 29.17 in987.8 mb 0.00 in0.0 mm 0.00 in0.0 mm 0.00 in0.0 mm
01:50 AM 77.2°F25.1°C 73.0°F22.8°C 87% Calm Calm 3.0 mph4.8 kmh 29.17 in987.8 mb 0.00 in0.0 mm 0.00 in0.0 mm 0.00 in0.0 mm
01:45 AM 77.4°F25.2°C 73.2°F22.9°C 87% 2.0 mph SSE3.2 kmh SSE 2.0 mph3.2 kmh 29.17 in987.8 mb 0.00 in0.0 mm 0.00 in0.0 mm 0.00 in0.0 mm
01:40 AM 77.4°F25.2°C 73.2°F22.9°C 87% 1.0 mph ESE1.6 kmh ESE 2.0 mph3.2 kmh 29.17 in987.8 mb 0.00 in0.0 mm 0.00 in0.0 mm 0.00 in0.0 mm
01:35 AM 77.4°F25.2°C 73.2°F22.9°C 87% 2.0 mph NNE3.2 kmh NNE 2.0 mph3.2 kmh 29.17 in987.8 mb 0.00 in0.0 mm 0.00 in0.0 mm 0.00 in0.0 mm
01:30 AM 77.4°F25.2°C 72.9°F22.7°C 86% Calm Calm 2.0 mph3.2 kmh 29.17 in987.8 mb 0.00 in0.0 mm 0.00 in0.0 mm 0.00 in0.0 mm
01:25 AM 77.5°F25.3°C 73.0°F22.8°C 86% 1.0 mph S1.6 kmh S 3.0 mph4.8 kmh 29.17 in987.8 mb 0.00 in0.0 mm 0.00 in0.0 mm 0.00 in0.0 mm
01:20 AM 77.5°F25.3°C 73.0°F22.8°C 86% 2.0 mph SSE3.2 kmh SSE 5.0 mph8.0 kmh 29.17 in987.8 mb 0.00 in0.0 mm 0.00 in0.0 mm 0.00 in0.0 mm
01:15 AM 77.7°F25.4°C 73.2°F22.9°C 86% 1.0 mph SSE1.6 kmh SSE 5.0 mph8.0 kmh 29.17 in987.8 mb 0.00 in0.0 mm 0.00 in0.0 mm 0.00 in0.0 mm
01:10 AM 77.7°F25.4°C 72.8°F22.7°C 85% 2.0 mph SSE3.2 kmh SSE 4.0 mph6.4 kmh 29.17 in987.8 mb 0.00 in0.0 mm 0.00 in0.0 mm 0.00 in0.0 mm
01:05 AM 77.7°F25.4°C 72.8°F22.7°C 85% Calm Calm 5.0 mph8.0 kmh 29.17 in987.8 mb 0.00 in0.0 mm 0.00 in0.0 mm 0.00 in0.0 mm
01:00 AM 77.7°F25.4°C 72.8°F22.7°C 85% 2.0 mph S3.2 kmh S 3.0 mph4.8 kmh 29.17 in987.8 mb 0.00 in0.0 mm 0.00 in0.0 mm 0.00 in0.0 mm
12:55 AM 77.7°F25.4°C 72.5°F22.5°C 84% 1.0 mph S1.6 kmh S 4.0 mph6.4 kmh 29.17 in987.8 mb 0.00 in0.0 mm 0.00 in0.0 mm 0.00 in0.0 mm
12:50 AM 77.9°F25.5°C 72.7°F22.6°C 84% 4.0 mph S6.4 kmh S 4.0 mph6.4 kmh 29.17 in987.8 mb 0.00 in0.0 mm 0.00 in0.0 mm 0.00 in0.0 mm
12:45 AM 77.9°F25.5°C 72.7°F22.6°C 84% Calm Calm 3.0 mph4.8 kmh 29.17 in987.8 mb 0.00 in0.0 mm 0.00 in0.0 mm 0.00 in0.0 mm
12:40 AM 78.1°F25.6°C 72.5°F22.5°C 83% Calm Calm 2.0 mph3.2 kmh 29.17 in987.8 mb 0.00 in0.0 mm 0.00 in0.0 mm 0.00 in0.0 mm
12:35 AM 78.3°F25.7°C 72.7°F22.6°C 83% Calm Calm 3.0 mph4.8 kmh 29.17 in987.8 mb 0.00 in0.0 mm 0.00 in0.0 mm 0.00 in0.0 mm
12:30 AM 78.3°F25.7°C 72.7°F22.6°C 83% 4.0 mph S6.4 kmh S 6.0 mph9.7 kmh 29.17 in987.8 mb 0.00 in0.0 mm 0.00 in0.0 mm 0.00 in0.0 mm
12:25 AM 78.4°F25.8°C 72.4°F22.4°C 82% Calm Calm 2.0 mph3.2 kmh 29.17 in987.8 mb 0.00 in0.0 mm 0.00 in0.0 mm 0.00 in0.0 mm
12:21 AM 78.4°F25.8°C 72.4°F22.4°C 82% 2.0 mph 3.2 kmh 2.0 mph3.2 kmh 29.17 in987.8 mb 0.00 in0.0 mm 0.00 in0.0 mm 0.00 in0.0 mm
12:16 AM 78.6°F25.9°C 72.6°F22.6°C 82% 1.0 mph SE1.6 kmh SE 1.0 mph1.6 kmh 29.18 in988.1 mb 0.00 in0.0 mm 0.00 in0.0 mm 0.00 in0.0 mm
12:11 AM 78.8°F26.0°C 72.5°F22.5°C 81% Calm Calm 3.0 mph4.8 kmh 29.18 in988.1 mb 0.00 in0.0 mm 0.00 in0.0 mm 0.00 in0.0 mm
12:08 AM 78.8°F26.0°C 72.5°F22.5°C 81% 2.0 mph SSE3.2 kmh SSE 2.0 mph3.2 kmh 29.18 in988.1 mb 0.00 in0.0 mm 0.00 in0.0 mm 0.00 in0.0 mm
12:00 AM 79.0°F26.1°C 72.7°F22.6°C 81% 2.0 mph SSE3.2 kmh SSE 2.0 mph3.2 kmh 29.18 in988.1 mb 0.00 in0.0 mm 0.00 in0.0 mm 0.00 in0.0 mm